Time;durP1;ratioP1;P1;durP2;ratioP2;P2;SDS_P1;SDS_P2;PMS_P1;PMS_P2;Temp;Humidity;BMP_temperature;BMP_pressure;BME280_temperature;BME280_humidity;BME280_pressure;Samples;Min_cycle;Max_cycle;Signal;HPM_P1;HPM_P2
2023/07/28 00:01:08;;;;;;;2.60;1.58;;;20.40;64.90;;;;;;4979762;28;20054;-50
2023/07/28 00:03:35;;;;;;;1.60;1.10;;;20.40;64.90;;;;;;4981221;28;20406;-54
2023/07/28 00:06:02;;;;;;;3.88;1.25;;;20.40;64.90;;;;;;4980514;28;20053;-53
2023/07/28 00:08:29;;;;;;;2.75;1.17;;;20.30;64.90;;;;;;4979764;28;20062;-54
2023/07/28 00:10:57;;;;;;;1.95;1.30;;;20.40;65.00;;;;;;4976357;28;20057;-55
2023/07/28 00:13:24;;;;;;;3.28;0.90;;;20.40;65.10;;;;;;4981200;28;20054;-56
2023/07/28 00:15:52;;;;;;;2.13;1.50;;;20.40;65.10;;;;;;4979856;28;20050;-55
2023/07/28 00:18:21;;;;;;;1.77;1.33;;;20.30;65.00;;;;;;4981902;28;20065;-54
2023/07/28 00:20:48;;;;;;;1.65;1.00;;;20.30;65.10;;;;;;4978495;28;20050;-54
2023/07/28 00:23:15;;;;;;;1.52;1.02;;;20.40;65.20;;;;;;4979972;28;20065;-56
2023/07/28 00:25:42;;;;;;;2.40;1.27;;;20.40;65.30;;;;;;4974980;28;20061;-52
2023/07/28 00:28:10;;;;;;;1.63;1.20;;;20.30;65.20;;;;;;4977279;28;20064;-56
2023/07/28 00:30:37;;;;;;;3.70;1.08;;;20.40;65.30;;;;;;4975374;28;20445;-54
2023/07/28 00:33:06;;;;;;;1.58;1.13;;;20.40;65.30;;;;;;4974128;28;20061;-55
2023/07/28 00:35:34;;;;;;;1.50;1.20;;;20.40;65.40;;;;;;4975525;28;20050;-56
2023/07/28 00:38:01;;;;;;;1.65;1.00;;;20.40;65.40;;;;;;4978624;28;20050;-55
2023/07/28 00:40:28;;;;;;;3.72;1.33;;;20.40;65.40;;;;;;4979745;28;20054;-55
2023/07/28 00:42:55;;;;;;;3.55;1.25;;;20.40;65.40;;;;;;4971783;28;20054;-56
2023/07/28 00:45:23;;;;;;;1.10;1.00;;;20.40;65.40;;;;;;4975705;28;20054;-52
2023/07/28 00:47:50;;;;;;;1.55;1.20;;;20.40;65.40;;;;;;4976412;28;20046;-52
2023/07/28 00:50:19;;;;;;;2.65;0.80;;;20.40;65.40;;;;;;4975892;28;20059;-50
2023/07/28 00:52:46;;;;;;;1.05;0.90;;;20.40;65.40;;;;;;4980238;28;20375;-50
2023/07/28 00:55:13;;;;;;;2.38;1.00;;;20.40;65.50;;;;;;4980168;28;20057;-52
2023/07/28 00:57:41;;;;;;;1.25;0.88;;;20.40;65.50;;;;;;4974933;28;20058;-47
2023/07/28 01:00:15;;;;;;;0.95;0.80;;;20.40;65.60;;;;;;4979350;28;20054;-56
2023/07/28 01:05:14;;;;;;;0.77;0.75;;;20.40;65.60;;;;;;4997852;28;20061;-46
2023/07/28 01:07:48;;;;;;;1.75;1.30;;;20.40;65.60;;;;;;5002525;28;20394;-42
2023/07/28 01:10:19;;;;;;;1.23;0.80;;;20.40;65.60;;;;;;5000992;28;20065;-45
2023/07/28 01:12:46;;;;;;;0.77;0.77;;;20.40;65.60;;;;;;5001075;28;21402;-45
2023/07/28 01:15:14;;;;;;;3.20;0.90;;;20.40;65.60;;;;;;5000385;28;20065;-43
2023/07/28 01:17:42;;;;;;;1.17;0.88;;;20.40;65.60;;;;;;5000194;28;20053;-42
2023/07/28 01:20:11;;;;;;;1.05;0.90;;;20.50;65.60;;;;;;5000005;28;20058;-45
2023/07/28 01:23:04;;;;;;;1.05;0.90;;;20.40;65.60;;;;;;5001707;28;20053;-48
2023/07/28 01:25:54;;;;;;;0.80;0.77;;;20.40;65.60;;;;;;4998594;28;20520;-48
2023/07/28 01:28:23;;;;;;;0.85;0.80;;;20.40;65.60;;;;;;5001044;28;20064;-42
2023/07/28 01:30:51;;;;;;;1.80;0.85;;;20.50;65.70;;;;;;4999226;28;20121;-43
2023/07/28 01:33:18;;;;;;;1.08;0.77;;;20.40;65.60;;;;;;4996611;28;20066;-44
2023/07/28 01:35:45;;;;;;;0.77;0.73;;;20.40;65.60;;;;;;4999398;28;20056;-42
2023/07/28 01:38:13;;;;;;;0.70;0.60;;;20.40;65.70;;;;;;4997165;28;20054;-42
2023/07/28 01:40:40;;;;;;;1.00;0.90;;;20.50;65.80;;;;;;5000443;28;20547;-46
2023/07/28 01:43:07;;;;;;;0.77;0.70;;;20.40;65.70;;;;;;5000726;28;20053;-42
2023/07/28 01:45:36;;;;;;;0.85;0.60;;;20.40;65.70;;;;;;5001756;28;20052;-42
2023/07/28 01:48:03;;;;;;;0.90;0.70;;;20.50;65.80;;;;;;5000693;28;20050;-42
2023/07/28 01:50:31;;;;;;;0.70;0.70;;;20.40;65.80;;;;;;4999146;28;20073;-47
2023/07/28 01:52:59;;;;;;;0.75;0.60;;;20.50;65.80;;;;;;5000751;28;20568;-44
2023/07/28 01:55:26;;;;;;;2.08;0.70;;;20.40;65.80;;;;;;5001276;28;20075;-44
2023/07/28 01:57:56;;;;;;;0.70;0.70;;;20.50;65.90;;;;;;4999742;28;20068;-45
2023/07/28 02:00:24;;;;;;;3.20;0.90;;;20.50;66.00;;;;;;4998643;28;20057;-45
2023/07/28 02:02:54;;;;;;;1.27;0.90;;;20.50;65.90;;;;;;4997037;28;20053;-42
2023/07/28 02:05:21;;;;;;;1.45;0.95;;;20.50;66.00;;;;;;4964395;28;20058;-46
2023/07/28 02:07:48;;;;;;;1.17;0.80;;;20.50;65.90;;;;;;4965067;28;20058;-45
2023/07/28 02:10:16;;;;;;;1.02;0.80;;;20.50;66.00;;;;;;4965220;28;20105;-45
2023/07/28 02:12:43;;;;;;;1.38;0.98;;;20.50;66.00;;;;;;4963883;28;20055;-46
2023/07/28 02:15:10;;;;;;;0.80;0.70;;;20.50;66.00;;;;;;4965288;28;20414;-45
2023/07/28 02:17:37;;;;;;;1.20;0.70;;;20.50;65.90;;;;;;4965163;28;20054;-46
2023/07/28 02:20:10;;;;;;;0.98;0.90;;;20.50;65.90;;;;;;4965717;28;20050;-43
2023/07/28 02:22:37;;;;;;;0.90;0.80;;;20.50;66.00;;;;;;4965033;28;20062;-44
2023/07/28 02:25:05;;;;;;;0.70;0.70;;;20.50;66.00;;;;;;4964594;28;20483;-42
2023/07/28 02:27:33;;;;;;;1.25;0.70;;;20.50;66.00;;;;;;4964026;28;20043;-43
2023/07/28 02:30:00;;;;;;;2.08;1.00;;;20.50;66.00;;;;;;4966601;28;20061;-43
2023/07/28 02:32:28;;;;;;;1.27;0.77;;;20.50;66.00;;;;;;4965148;28;20061;-42
2023/07/28 02:34:55;;;;;;;0.93;0.80;;;20.50;66.10;;;;;;4964872;28;20050;-43
2023/07/28 02:37:25;;;;;;;2.22;1.42;;;20.50;66.10;;;;;;4965088;28;20908;-42
2023/07/28 02:39:52;;;;;;;1.60;0.80;;;20.50;66.10;;;;;;4964413;28;20070;-42
2023/07/28 02:42:19;;;;;;;0.70;0.70;;;20.50;66.10;;;;;;4963183;28;20478;-43
2023/07/28 02:44:47;;;;;;;1.10;0.90;;;20.60;66.10;;;;;;4965081;28;20051;-45
2023/07/28 02:47:14;;;;;;;0.82;0.70;;;20.50;66.10;;;;;;4966301;28;20055;-45
2023/07/28 02:49:43;;;;;;;1.88;0.82;;;20.50;66.10;;;;;;4965165;28;20065;-42
2023/07/28 02:52:10;;;;;;;0.80;0.75;;;20.60;66.10;;;;;;4964607;28;20063;-42
2023/07/28 02:54:39;;;;;;;1.70;0.90;;;20.60;66.20;;;;;;4965561;28;20054;-41
2023/07/28 02:57:06;;;;;;;0.90;0.73;;;20.60;66.20;;;;;;4963598;28;20482;-44
2023/07/28 02:59:34;;;;;;;0.60;0.60;;;20.50;66.10;;;;;;4963589;28;20441;-41
2023/07/28 03:02:01;;;;;;;0.70;0.70;;;20.60;66.10;;;;;;4964084;28;20414;-42
2023/07/28 03:04:28;;;;;;;1.02;0.60;;;20.60;66.20;;;;;;4964259;28;20533;-45
2023/07/28 03:06:56;;;;;;;1.05;0.50;;;20.50;66.10;;;;;;4965155;28;20046;-42
2023/07/28 03:09:23;;;;;;;1.02;0.70;;;20.60;66.30;;;;;;4964414;28;20061;-43
2023/07/28 03:11:51;;;;;;;0.55;0.50;;;20.60;66.20;;;;;;4963453;28;20054;-41
2023/07/28 03:14:19;;;;;;;1.08;0.60;;;20.60;66.20;;;;;;4964289;28;20138;-42
2023/07/28 03:16:46;;;;;;;2.22;0.70;;;20.60;66.20;;;;;;4964222;28;20058;-45
2023/07/28 03:19:13;;;;;;;2.75;0.90;;;20.60;66.30;;;;;;4964213;28;20062;-42
2023/07/28 03:21:40;;;;;;;1.23;0.60;;;20.60;66.20;;;;;;4964967;28;20058;-42
2023/07/28 03:24:08;;;;;;;0.60;0.60;;;20.60;66.20;;;;;;4965235;28;20058;-47
2023/07/28 03:26:35;;;;;;;1.35;0.80;;;20.60;66.20;;;;;;4962811;28;20069;-48
2023/07/28 03:29:04;;;;;;;0.60;0.60;;;20.60;66.30;;;;;;4964362;28;20053;-51
2023/07/28 03:31:31;;;;;;;0.90;0.70;;;20.60;66.30;;;;;;4965145;28;20050;-47
2023/07/28 03:33:58;;;;;;;0.70;0.70;;;20.60;66.30;;;;;;4964714;28;20063;-48
2023/07/28 03:36:26;;;;;;;0.55;0.52;;;20.60;66.40;;;;;;4964540;28;20059;-49
2023/07/28 03:38:53;;;;;;;0.90;0.63;;;20.60;66.40;;;;;;4965216;28;20058;-52
2023/07/28 03:41:21;;;;;;;0.70;0.60;;;20.60;66.40;;;;;;4962732;28;20058;-52
2023/07/28 03:43:48;;;;;;;2.03;0.80;;;20.60;66.50;;;;;;4963735;28;20055;-49
2023/07/28 03:46:17;;;;;;;0.88;0.60;;;20.60;66.50;;;;;;4963865;28;20051;-49
2023/07/28 03:48:44;;;;;;;2.78;0.80;;;20.60;66.50;;;;;;4964286;28;20055;-49
2023/07/28 03:51:11;;;;;;;2.05;0.70;;;20.60;67.20;;;;;;4963741;28;20058;-51
2023/07/28 03:53:38;;;;;;;0.85;0.60;;;20.60;66.50;;;;;;4965400;28;20883;-48
2023/07/28 03:56:06;;;;;;;1.15;0.60;;;20.60;66.60;;;;;;4964233;28;20061;-51
2023/07/28 03:58:33;;;;;;;0.60;0.60;;;20.60;66.60;;;;;;4964624;28;20502;-50
2023/07/28 04:01:00;;;;;;;0.90;0.73;;;20.60;66.60;;;;;;4965535;28;20069;-54
2023/07/28 04:03:29;;;;;;;2.65;0.75;;;20.60;66.60;;;;;;4964336;28;21311;-50
2023/07/28 04:05:56;;;;;;;0.50;0.50;;;20.60;66.60;;;;;;4963948;28;20043;-48
2023/07/28 04:08:23;;;;;;;1.55;0.63;;;20.60;66.60;;;;;;4964584;28;20053;-48
2023/07/28 04:10:50;;;;;;;0.90;0.75;;;20.60;66.60;;;;;;4965158;28;20062;-49
2023/07/28 04:13:18;;;;;;;0.80;0.50;;;20.60;66.60;;;;;;4969791;28;20050;-51
2023/07/28 04:15:45;;;;;;;0.88;0.40;;;20.60;66.60;;;;;;4967579;28;20498;-51
2023/07/28 04:18:12;;;;;;;0.65;0.60;;;20.60;66.60;;;;;;4969762;28;20061;-49
2023/07/28 04:20:41;;;;;;;0.75;0.60;;;20.60;66.60;;;;;;4967914;28;20510;-53
2023/07/28 04:23:08;;;;;;;1.33;0.80;;;20.60;66.60;;;;;;4967046;28;20062;-47
2023/07/28 04:25:35;;;;;;;0.40;0.38;;;20.60;66.60;;;;;;4967006;28;20480;-52
2023/07/28 04:28:02;;;;;;;0.55;0.55;;;20.60;66.60;;;;;;4967336;28;20057;-47
2023/07/28 04:30:30;;;;;;;1.98;0.60;;;20.60;66.60;;;;;;4968431;28;20154;-45
2023/07/28 04:32:57;;;;;;;0.52;0.40;;;20.60;66.60;;;;;;4966941;28;20054;-49
2023/07/28 04:35:24;;;;;;;1.08;0.63;;;20.70;66.80;;;;;;4967575;28;20058;-46
2023/07/28 04:37:53;;;;;;;0.50;0.50;;;20.70;66.80;;;;;;4966270;28;20514;-43
2023/07/28 04:40:20;;;;;;;0.70;0.47;;;20.70;66.80;;;;;;4966648;28;20059;-42
2023/07/28 04:42:52;;;;;;;0.85;0.60;;;20.70;66.90;;;;;;4966572;28;20055;-42
2023/07/28 04:45:19;;;;;;;2.13;0.57;;;20.70;66.90;;;;;;4958816;28;20077;-43
2023/07/28 04:47:47;;;;;;;1.48;1.10;;;20.70;66.90;;;;;;4985848;28;20065;-46
2023/07/28 04:50:14;;;;;;;1.48;1.05;;;20.70;67.00;;;;;;4985666;28;20414;-45
2023/07/28 04:52:41;;;;;;;1.50;0.70;;;20.70;67.00;;;;;;4986160;28;20065;-44
2023/07/28 04:55:10;;;;;;;0.63;0.63;;;20.70;67.00;;;;;;4987211;28;20509;-44
2023/07/28 04:57:37;;;;;;;0.60;0.60;;;20.70;67.10;;;;;;4985407;28;20077;-48
2023/07/28 05:00:06;;;;;;;1.73;0.60;;;20.70;67.00;;;;;;4986091;28;20058;-49
2023/07/28 05:02:33;;;;;;;2.40;0.60;;;20.80;67.20;;;;;;4986835;28;20057;-42
2023/07/28 05:05:00;;;;;;;3.20;0.60;;;20.80;67.20;;;;;;4981565;28;20510;-42
2023/07/28 05:07:28;;;;;;;0.90;0.70;;;20.80;67.20;;;;;;4984244;28;20065;-42
2023/07/28 05:09:56;;;;;;;0.93;0.60;;;20.80;67.30;;;;;;4982850;28;20061;-42
2023/07/28 05:12:24;;;;;;;2.35;0.57;;;20.80;67.30;;;;;;4982674;28;20058;-41
2023/07/28 05:14:52;;;;;;;0.90;0.77;;;20.80;67.40;;;;;;4984371;28;20061;-42
2023/07/28 05:17:19;;;;;;;0.60;0.60;;;20.80;67.40;;;;;;4982679;28;20513;-44
2023/07/28 05:19:46;;;;;;;2.83;1.30;;;20.80;67.40;;;;;;4983853;28;20058;-44
2023/07/28 05:22:13;;;;;;;8.73;5.68;;;20.80;67.50;;;;;;4982807;28;20050;-43
2023/07/28 05:24:41;;;;;;;5.82;4.05;;;20.80;67.50;;;;;;4983671;28;20058;-42
2023/07/28 05:27:08;;;;;;;3.85;1.50;;;20.80;67.50;;;;;;4982358;28;20062;-49
2023/07/28 05:29:37;;;;;;;0.90;0.75;;;20.90;67.60;;;;;;4983580;28;20063;-43
2023/07/28 05:32:05;;;;;;;0.50;0.47;;;20.90;67.50;;;;;;4983953;28;20054;-47
2023/07/28 05:34:32;;;;;;;2.75;0.70;;;20.90;67.50;;;;;;4983553;28;20521;-43
2023/07/28 05:36:59;;;;;;;2.25;0.80;;;20.90;67.50;;;;;;4982160;28;20054;-42
2023/07/28 05:39:26;;;;;;;0.95;0.93;;;20.90;67.60;;;;;;4982356;28;20410;-43
2023/07/28 05:41:54;;;;;;;1.77;0.70;;;20.90;67.50;;;;;;4981893;28;20062;-42
2023/07/28 05:44:21;;;;;;;1.20;0.70;;;21.00;67.60;;;;;;4984023;28;20055;-42
2023/07/28 05:46:50;;;;;;;0.68;0.68;;;21.00;67.60;;;;;;4983449;28;20533;-46
2023/07/28 05:49:17;;;;;;;1.00;0.57;;;21.00;67.60;;;;;;4983261;28;20058;-47
2023/07/28 05:51:44;;;;;;;1.02;0.45;;;21.00;67.60;;;;;;4983168;28;20494;-48
2023/07/28 05:54:14;;;;;;;1.05;0.70;;;21.00;67.60;;;;;;4983045;28;20050;-47
2023/07/28 05:56:41;;;;;;;1.35;0.60;;;21.10;67.70;;;;;;4982093;28;20054;-48
2023/07/28 05:59:09;;;;;;;0.73;0.68;;;21.10;67.70;;;;;;4983379;28;20058;-47
2023/07/28 06:01:36;;;;;;;0.60;0.50;;;21.10;67.70;;;;;;4983623;28;20070;-48
2023/07/28 06:04:05;;;;;;;0.73;0.60;;;21.10;67.70;;;;;;4982903;28;20058;-48
2023/07/28 06:06:32;;;;;;;0.80;0.60;;;21.10;67.80;;;;;;4982923;28;20065;-47
2023/07/28 06:08:59;;;;;;;0.82;0.60;;;21.10;67.70;;;;;;4978854;28;20483;-46
2023/07/28 06:11:28;;;;;;;0.90;0.77;;;21.10;67.80;;;;;;4979427;28;20505;-46
2023/07/28 06:13:55;;;;;;;1.10;0.80;;;21.20;67.90;;;;;;4980474;28;20058;-48
2023/07/28 06:16:22;;;;;;;0.93;0.60;;;21.20;67.90;;;;;;4980803;28;20055;-49
2023/07/28 06:18:51;;;;;;;0.70;0.70;;;21.20;67.80;;;;;;4980007;28;20406;-49
2023/07/28 06:21:20;;;;;;;1.13;0.70;;;21.20;67.70;;;;;;4982173;28;20050;-48
2023/07/28 06:23:47;;;;;;;3.13;0.98;;;21.20;67.70;;;;;;4982848;28;20062;-49
2023/07/28 06:26:14;;;;;;;4.22;0.70;;;21.20;67.70;;;;;;4981753;28;20415;-49
2023/07/28 06:28:42;;;;;;;1.77;0.90;;;21.30;67.80;;;;;;4982623;28;20917;-47
2023/07/28 06:31:10;;;;;;;0.88;0.70;;;21.30;67.80;;;;;;4982052;28;20062;-50
2023/07/28 06:33:37;;;;;;;0.65;0.65;;;21.30;67.80;;;;;;4979859;28;20050;-47
2023/07/28 06:36:07;;;;;;;1.30;0.80;;;21.30;67.80;;;;;;4979356;28;20046;-47
2023/07/28 06:38:38;;;;;;;1.20;0.50;;;21.30;67.80;;;;;;4982266;28;20046;-49
2023/07/28 06:41:05;;;;;;;1.35;0.82;;;21.30;67.70;;;;;;4989562;23;20054;-46
2023/07/28 06:43:32;;;;;;;0.68;0.60;;;21.40;67.70;;;;;;5003150;28;20054;-49
2023/07/28 06:46:00;;;;;;;1.42;0.70;;;21.40;67.70;;;;;;5002687;28;20512;-48
2023/07/28 06:48:27;;;;;;;1.88;0.93;;;21.40;67.70;;;;;;4999863;28;20053;-47
2023/07/28 06:50:54;;;;;;;1.30;0.63;;;21.40;67.80;;;;;;5000993;28;20054;-46
2023/07/28 06:53:22;;;;;;;0.60;0.50;;;21.40;67.70;;;;;;5001920;28;20053;-52
2023/07/28 06:55:50;;;;;;;1.02;0.93;;;21.40;67.70;;;;;;5002951;28;21386;-49
2023/07/28 06:58:18;;;;;;;0.65;0.45;;;21.40;68.20;;;;;;5003002;28;20069;-52
2023/07/28 07:00:45;;;;;;;1.52;0.60;;;21.50;67.50;;;;;;5002764;28;20520;-49
2023/07/28 07:03:13;;;;;;;5.05;0.68;;;21.50;67.40;;;;;;4998917;28;20064;-49
2023/07/28 07:05:40;;;;;;;0.82;0.45;;;21.50;67.40;;;;;;5000842;28;20053;-46
2023/07/28 07:08:08;;;;;;;0.52;0.52;;;21.50;67.40;;;;;;5000060;28;20486;-49
2023/07/28 07:10:35;;;;;;;19.63;10.30;;;21.50;67.50;;;;;;4999688;28;20061;-48
2023/07/28 07:13:04;;;;;;;9.68;6.72;;;21.50;67.70;;;;;;4999945;28;20056;-52
2023/07/28 07:15:31;;;;;;;3.80;2.72;;;21.50;67.90;;;;;;5000555;28;20052;-49
2023/07/28 07:17:58;;;;;;;1.33;1.10;;;21.50;68.10;;;;;;5000015;28;20045;-51
2023/07/28 07:20:26;;;;;;;0.60;0.55;;;21.60;68.30;;;;;;4999900;28;20513;-49
2023/07/28 07:22:53;;;;;;;0.70;0.70;;;21.60;68.60;;;;;;4999658;28;20057;-49
2023/07/28 07:25:21;;;;;;;1.65;0.60;;;21.70;68.80;;;;;;5000576;28;20512;-47
2023/07/28 07:27:48;;;;;;;0.50;0.50;;;21.70;68.90;;;;;;4999519;28;20046;-49
2023/07/28 07:30:17;;;;;;;0.63;0.63;;;21.70;69.00;;;;;;5001024;28;20502;-49
2023/07/28 07:32:44;;;;;;;0.60;0.60;;;21.80;69.20;;;;;;5000700;28;20506;-49
2023/07/28 07:35:12;;;;;;;1.05;0.70;;;21.90;69.10;;;;;;4999740;28;20409;-48
2023/07/28 07:37:40;;;;;;;0.98;0.50;;;21.90;69.10;;;;;;4999174;28;20054;-49
2023/07/28 07:40:08;;;;;;;1.95;0.45;;;22.00;69.10;;;;;;4993587;28;20061;-50
2023/07/28 07:42:43;;;;;;;0.82;0.43;;;22.00;69.20;;;;;;4998077;28;20057;-49
2023/07/28 07:45:11;;;;;;;1.15;0.52;;;22.10;69.40;;;;;;5001586;28;20054;-51
2023/07/28 07:47:41;;;;;;;1.42;0.40;;;22.10;69.30;;;;;;5005173;28;20050;-53
2023/07/28 07:50:09;;;;;;;2.05;0.40;;;22.10;69.10;;;;;;5003048;28;20061;-48
2023/07/28 07:52:37;;;;;;;0.95;0.40;;;22.20;69.00;;;;;;5001437;28;20057;-49
2023/07/28 07:55:05;;;;;;;0.65;0.40;;;22.20;68.80;;;;;;5002291;28;20060;-50
2023/07/28 07:57:32;;;;;;;0.95;0.50;;;22.20;68.60;;;;;;5002533;28;20050;-51
2023/07/28 07:59:59;;;;;;;0.75;0.38;;;22.30;68.40;;;;;;5003327;28;20413;-51
2023/07/28 08:02:26;;;;;;;0.80;0.50;;;22.30;68.20;;;;;;5004583;28;20057;-50
2023/07/28 08:04:55;;;;;;;2.00;0.50;;;22.30;68.10;;;;;;5002495;28;20060;-43
2023/07/28 08:07:23;;;;;;;1.75;0.45;;;22.30;67.90;;;;;;5000494;28;20050;-46
2023/07/28 08:09:50;;;;;;;2.88;0.70;;;22.30;68.00;;;;;;4996276;28;20072;-43
2023/07/28 08:12:18;;;;;;;2.10;0.45;;;22.40;68.00;;;;;;4995635;28;20058;-46
2023/07/28 08:14:45;;;;;;;0.68;0.50;;;22.40;67.90;;;;;;4990064;28;20050;-43
2023/07/28 08:17:13;;;;;;;0.95;0.43;;;22.40;67.90;;;;;;4991230;28;20058;-43
2023/07/28 08:19:40;;;;;;;0.75;0.68;;;22.40;67.80;;;;;;4993796;28;20060;-49
2023/07/28 08:22:10;;;;;;;1.45;0.60;;;22.50;67.80;;;;;;4992014;28;20512;-48
2023/07/28 08:24:37;;;;;;;1.10;0.50;;;22.50;67.70;;;;;;4994943;28;20054;-45
2023/07/28 08:27:04;;;;;;;0.40;0.40;;;22.50;67.60;;;;;;4989183;28;20057;-44
2023/07/28 08:29:32;;;;;;;1.13;0.50;;;22.50;67.40;;;;;;4995023;28;20053;-43
2023/07/28 08:31:59;;;;;;;1.58;0.38;;;22.60;67.40;;;;;;4995112;28;20063;-47
2023/07/28 08:34:27;;;;;;;0.52;0.50;;;22.60;67.50;;;;;;4997395;28;20501;-51
2023/07/28 08:36:54;;;;;;;1.48;0.60;;;22.60;67.70;;;;;;4992416;28;20049;-43
2023/07/28 08:39:22;;;;;;;0.65;0.43;;;22.60;67.60;;;;;;4997157;28;20485;-44
2023/07/28 08:41:59;;;;;;;0.50;0.50;;;22.60;67.40;;;;;;4996818;28;20076;-42
2023/07/28 08:44:26;;;;;;;0.65;0.50;;;22.70;67.40;;;;;;4997800;28;20053;-43
2023/07/28 08:46:53;;;;;;;0.57;0.30;;;22.70;67.50;;;;;;5000346;28;20060;-43
2023/07/28 08:49:21;;;;;;;0.98;0.22;;;22.70;67.60;;;;;;5000030;28;20498;-45
2023/07/28 08:51:53;;;;;;;0.43;0.30;;;22.70;67.70;;;;;;4998919;28;20413;-47
2023/07/28 08:54:23;;;;;;;0.30;0.30;;;22.80;68.30;;;;;;4994724;28;20058;-44
2023/07/28 08:56:51;;;;;;;0.40;0.17;;;22.90;67.50;;;;;;4989297;28;20077;-43
2023/07/28 08:59:23;;;;;;;0.20;0.20;;;22.90;67.30;;;;;;4991330;28;20489;-44
2023/07/28 09:01:51;;;;;;;0.80;0.45;;;22.90;67.40;;;;;;4996625;28;20065;-46
2023/07/28 09:04:18;;;;;;;2.45;0.50;;;23.00;67.60;;;;;;5001787;28;20531;-45
2023/07/28 09:06:46;;;;;;;1.73;0.52;;;23.00;67.80;;;;;;4995056;28;20057;-45
2023/07/28 09:09:14;;;;;;;1.55;0.65;;;23.10;67.80;;;;;;4998415;28;20065;-48
2023/07/28 09:11:46;;;;;;;0.57;0.50;;;23.10;67.80;;;;;;4995831;28;20049;-44
2023/07/28 09:14:16;;;;;;;0.60;0.60;;;23.20;67.60;;;;;;4999929;28;20418;-46
2023/07/28 09:16:43;;;;;;;1.10;0.40;;;23.20;67.30;;;;;;4999566;28;20061;-42
2023/07/28 09:19:11;;;;;;;1.35;0.38;;;23.20;66.90;;;;;;4996302;28;20050;-43
2023/07/28 09:21:40;;;;;;;5.35;0.70;;;23.20;66.50;;;;;;5000484;28;20498;-45
2023/07/28 09:24:13;;;;;;;5.72;0.55;;;23.20;66.80;;;;;;4999059;28;21431;-46
2023/07/28 09:26:42;;;;;;;3.65;0.65;;;23.20;67.00;;;;;;4992796;28;20061;-45
2023/07/28 09:29:15;;;;;;;0.80;0.30;;;23.20;66.40;;;;;;4992514;28;20066;-44
2023/07/28 09:31:42;;;;;;;1.37;0.40;;;23.10;66.60;;;;;;4995224;28;20062;-43
2023/07/28 09:34:12;;;;;;;0.93;0.47;;;23.10;66.60;;;;;;5000392;28;20057;-45
2023/07/28 09:36:40;;;;;;;2.50;0.40;;;23.10;66.80;;;;;;4999884;28;20387;-44
2023/07/28 09:39:08;;;;;;;0.40;0.30;;;23.10;66.70;;;;;;4994287;28;20065;-44
2023/07/28 09:41:37;;;;;;;0.20;0.20;;;23.10;66.80;;;;;;4992492;28;20058;-45
2023/07/28 09:44:05;;;;;;;0.20;0.20;;;23.10;66.70;;;;;;4998887;28;20049;-44
2023/07/28 09:46:35;;;;;;;0.90;0.45;;;23.20;66.90;;;;;;5001575;28;20057;-44
2023/07/28 09:49:06;;;;;;;0.40;0.22;;;23.20;66.80;;;;;;5000003;28;20046;-46
2023/07/28 09:51:36;;;;;;;0.82;0.40;;;23.20;66.80;;;;;;4995923;28;20057;-45
2023/07/28 09:54:06;;;;;;;0.30;0.30;;;23.20;66.90;;;;;;4995142;28;20069;-42
2023/07/28 09:56:34;;;;;;;1.10;0.40;;;23.20;66.90;;;;;;4996300;28;20064;-46
2023/07/28 09:59:06;;;;;;;1.08;0.30;;;23.30;66.90;;;;;;4999893;28;20058;-43
2023/07/28 10:01:35;;;;;;;1.55;0.50;;;23.20;67.20;;;;;;4997899;28;20053;-44
2023/07/28 10:04:03;;;;;;;0.40;0.40;;;23.30;67.40;;;;;;4998440;28;20054;-43
2023/07/28 10:06:31;;;;;;;1.58;0.40;;;23.30;67.60;;;;;;5000372;28;20050;-43
2023/07/28 10:08:58;;;;;;;1.75;0.50;;;23.30;67.80;;;;;;4997343;28;20058;-46
2023/07/28 10:11:27;;;;;;;0.40;0.40;;;23.40;67.80;;;;;;4999841;28;20064;-44
2023/07/28 10:13:56;;;;;;;1.30;0.40;;;23.40;67.60;;;;;;5000511;28;20050;-43
2023/07/28 10:16:32;;;;;;;0.95;0.40;;;23.40;67.20;;;;;;4996674;28;20054;-43
2023/07/28 10:19:01;;;;;;;0.47;0.40;;;23.50;66.50;;;;;;4998227;28;20501;-45
2023/07/28 10:21:31;;;;;;;0.40;0.30;;;23.50;66.40;;;;;;4998758;28;20068;-44
2023/07/28 10:23:59;;;;;;;1.77;0.43;;;23.50;66.40;;;;;;4997587;28;20142;-43
2023/07/28 10:26:35;;;;;;;0.30;0.30;;;23.50;66.20;;;;;;4995510;28;20058;-46
2023/07/28 10:29:10;;;;;;;0.40;0.30;;;23.60;65.80;;;;;;4996656;28;20053;-47
2023/07/28 10:31:50;;;;;;;1.05;0.40;;;23.60;65.80;;;;;;4998313;28;20050;-44
2023/07/28 10:34:19;;;;;;;0.60;0.20;;;23.60;65.70;;;;;;4999048;28;20528;-45
2023/07/28 10:36:57;;;;;;;0.40;0.20;;;23.60;66.10;;;;;;4999243;28;20073;-44
2023/07/28 10:39:26;;;;;;;0.98;0.40;;;23.60;66.40;;;;;;5000386;28;20241;-46
2023/07/28 10:42:04;;;;;;;0.57;0.35;;;23.70;66.90;;;;;;4994871;28;20050;-45
2023/07/28 10:44:35;;;;;;;0.32;0.13;;;23.70;67.20;;;;;;4998139;28;20050;-44
2023/07/28 10:47:02;;;;;;;0.13;0.13;;;23.80;67.40;;;;;;4998631;28;20082;-45
2023/07/28 10:49:33;;;;;;;0.40;0.30;;;23.80;67.50;;;;;;4997528;28;20050;-46
2023/07/28 10:52:00;;;;;;;0.40;0.32;;;23.80;67.70;;;;;;4992090;28;20054;-45
2023/07/28 10:54:27;;;;;;;0.32;0.20;;;23.90;67.70;;;;;;4994685;28;20049;-45
2023/07/28 10:56:54;;;;;;;0.40;0.30;;;24.00;67.60;;;;;;4996880;28;20410;-43
2023/07/28 10:59:22;;;;;;;0.85;0.20;;;24.10;68.20;;;;;;4994912;28;20050;-44
2023/07/28 11:01:51;;;;;;;0.40;0.20;;;24.10;67.10;;;;;;4996345;28;21334;-45
2023/07/28 11:04:20;;;;;;;0.93;0.20;;;24.20;66.40;;;;;;4996466;28;20517;-43
2023/07/28 11:06:49;;;;;;;1.75;0.20;;;24.20;66.00;;;;;;4996205;28;20061;-43
2023/07/28 11:09:19;;;;;;;1.27;0.20;;;24.30;65.40;;;;;;4998883;28;20076;-48
2023/07/28 11:11:47;;;;;;;0.75;0.20;;;24.30;64.90;;;;;;4991667;28;20062;-46
2023/07/28 11:14:16;;;;;;;1.65;0.20;;;24.40;64.60;;;;;;5000287;28;20498;-43
2023/07/28 11:16:44;;;;;;;3.75;0.20;;;24.40;64.50;;;;;;4992984;28;20054;-44
2023/07/28 11:19:14;;;;;;;0.30;0.20;;;24.40;64.40;;;;;;4998204;28;20058;-43
2023/07/28 11:21:43;;;;;;;0.20;0.10;;;24.40;64.30;;;;;;5001668;28;20061;-44
2023/07/28 11:24:12;;;;;;;0.40;0.25;;;24.40;63.90;;;;;;5000971;28;20497;-44
2023/07/28 11:26:41;;;;;;;0.60;0.22;;;24.50;63.70;;;;;;5001021;28;20061;-46
2023/07/28 11:29:11;;;;;;;0.40;0.10;;;24.50;63.70;;;;;;5003224;28;20058;-50
2023/07/28 11:31:41;;;;;;;0.20;0.20;;;24.50;63.60;;;;;;5000591;28;20508;-49
2023/07/28 11:34:14;;;;;;;0.10;0.10;;;24.50;63.80;;;;;;5003965;28;20697;-43
2023/07/28 11:36:42;;;;;;;0.43;0.17;;;24.50;63.80;;;;;;5002909;28;20076;-43
2023/07/28 11:39:12;;;;;;;0.85;0.25;;;24.50;63.70;;;;;;5004312;28;20058;-41
2023/07/28 11:41:39;;;;;;;0.55;0.20;;;24.50;63.80;;;;;;5003066;28;20544;-42
2023/07/28 11:44:07;;;;;;;0.80;0.50;;;24.50;64.00;;;;;;5004723;28;20417;-44
2023/07/28 11:46:36;;;;;;;2.10;0.68;;;24.50;64.90;;;;;;5002292;28;20482;-42
2023/07/28 11:49:10;;;;;;;0.77;0.20;;;24.50;65.50;;;;;;5004270;28;20053;-42
2023/07/28 11:51:42;;;;;;;0.08;0.08;;;24.40;65.40;;;;;;5000353;28;20056;-49
2023/07/28 11:54:14;;;;;;;0.63;0.10;;;24.50;64.50;;;;;;5003727;28;20073;-42
2023/07/28 11:56:42;;;;;;;0.88;0.25;;;24.40;64.50;;;;;;5002572;28;20497;-45
2023/07/28 11:59:10;;;;;;;0.52;0.40;;;24.50;64.90;;;;;;5003767;28;20062;-43
2023/07/28 12:01:52;;;;;;;2.25;0.22;;;24.50;65.30;;;;;;5003342;28;20547;-42
2023/07/28 12:04:20;;;;;;;0.73;0.30;;;24.50;65.90;;;;;;5000665;28;20514;-44
2023/07/28 12:07:08;;;;;;;6.32;0.85;;;24.50;65.30;;;;;;5003140;28;20097;-42
2023/07/28 12:09:51;;;;;;;0.95;0.20;;;24.40;65.50;;;;;;5001532;28;20077;-42
2023/07/28 12:12:20;;;;;;;1.17;0.22;;;24.40;65.20;;;;;;5002730;28;20057;-51
2023/07/28 12:14:48;;;;;;;0.95;0.20;;;24.40;65.50;;;;;;5003452;28;20053;-42
2023/07/28 12:17:17;;;;;;;0.30;0.20;;;24.40;65.40;;;;;;5004029;28;20053;-43
2023/07/28 12:19:57;;;;;;;0.52;0.20;;;24.40;65.70;;;;;;4999325;28;20057;-44
2023/07/28 12:22:24;;;;;;;1.52;0.30;;;24.40;66.30;;;;;;5003164;28;20046;-42
2023/07/28 12:24:53;;;;;;;0.32;0.17;;;24.40;66.50;;;;;;5003310;28;20068;-43
2023/07/28 12:27:23;;;;;;;0.68;0.30;;;24.40;66.70;;;;;;5001152;28;20501;-47
2023/07/28 12:29:52;;;;;;;0.20;0.20;;;24.50;66.70;;;;;;5000988;28;20516;-43
2023/07/28 12:32:20;;;;;;;0.20;0.20;;;24.60;66.70;;;;;;4995671;28;20060;-47
2023/07/28 12:34:49;;;;;;;0.35;0.20;;;24.60;66.30;;;;;;5001651;28;20061;-44
2023/07/28 12:37:16;;;;;;;0.88;0.30;;;24.70;65.80;;;;;;4997174;28;20049;-46
2023/07/28 12:39:44;;;;;;;0.40;0.30;;;24.70;65.50;;;;;;5003741;28;20060;-49
2023/07/28 12:42:14;;;;;;;0.40;0.20;;;24.70;65.60;;;;;;5000331;28;20057;-47
2023/07/28 12:44:43;;;;;;;0.85;0.10;;;24.70;65.50;;;;;;5004010;28;20072;-48
2023/07/28 12:47:10;;;;;;;0.98;0.20;;;24.70;64.60;;;;;;4998487;28;20080;-51
2023/07/28 12:49:37;;;;;;;0.10;0.10;;;24.70;63.80;;;;;;5000333;28;20046;-51
2023/07/28 12:52:06;;;;;;;0.60;0.30;;;24.70;63.50;;;;;;5003543;28;20053;-54
2023/07/28 12:54:34;;;;;;;1.42;0.20;;;24.70;63.40;;;;;;5004001;28;20054;-54
2023/07/28 12:57:01;;;;;;;0.20;0.20;;;24.70;63.60;;;;;;4999743;28;20054;-49